sensor_id;sensor_type;location;lat;lon;timestamp;P1;durP1;ratioP1;P2;durP2;ratioP2
58123;SDS011;46725;48.068;20.832;2022-12-07T00:01:31;12.98;;;7.82;;
58123;SDS011;46725;48.068;20.832;2022-12-07T00:03:59;15.23;;;8.25;;
58123;SDS011;46725;48.068;20.832;2022-12-07T00:06:32;13.25;;;7.50;;
58123;SDS011;46725;48.068;20.832;2022-12-07T00:08:58;14.73;;;7.75;;
58123;SDS011;46725;48.068;20.832;2022-12-07T00:11:24;13.07;;;7.22;;
58123;SDS011;46725;48.068;20.832;2022-12-07T00:13:55;13.93;;;7.63;;
58123;SDS011;46725;48.068;20.832;2022-12-07T00:16:23;12.80;;;7.38;;
58123;SDS011;46725;48.068;20.832;2022-12-07T00:18:49;15.63;;;7.82;;
58123;SDS011;46725;48.068;20.832;2022-12-07T00:21:17;13.65;;;7.25;;
58123;SDS011;46725;48.068;20.832;2022-12-07T00:23:51;12.98;;;7.55;;
58123;SDS011;46725;48.068;20.832;2022-12-07T00:26:18;13.88;;;7.00;;
58123;SDS011;46725;48.068;20.832;2022-12-07T00:28:48;14.38;;;7.35;;
58123;SDS011;46725;48.068;20.832;2022-12-07T00:31:16;11.35;;;6.82;;
58123;SDS011;46725;48.068;20.832;2022-12-07T00:33:42;11.63;;;6.97;;
58123;SDS011;46725;48.068;20.832;2022-12-07T00:36:10;12.90;;;6.57;;
58123;SDS011;46725;48.068;20.832;2022-12-07T00:38:37;32.97;;;12.68;;
58123;SDS011;46725;48.068;20.832;2022-12-07T00:41:13;21.85;;;10.95;;
58123;SDS011;46725;48.068;20.832;2022-12-07T00:43:40;22.70;;;10.50;;
58123;SDS011;46725;48.068;20.832;2022-12-07T00:46:07;19.77;;;9.90;;
58123;SDS011;46725;48.068;20.832;2022-12-07T00:48:33;48.10;;;17.15;;
58123;SDS011;46725;48.068;20.832;2022-12-07T00:50:59;41.63;;;17.33;;
58123;SDS011;46725;48.068;20.832;2022-12-07T00:53:26;22.13;;;10.52;;
58123;SDS011;46725;48.068;20.832;2022-12-07T00:55:52;15.30;;;8.38;;
58123;SDS011;46725;48.068;20.832;2022-12-07T00:58:18;16.73;;;7.82;;
58123;SDS011;46725;48.068;20.832;2022-12-07T01:00:44;11.75;;;6.90;;
58123;SDS011;46725;48.068;20.832;2022-12-07T01:03:11;13.25;;;7.20;;
58123;SDS011;46725;48.068;20.832;2022-12-07T01:05:38;13.52;;;7.60;;
58123;SDS011;46725;48.068;20.832;2022-12-07T01:08:04;11.75;;;6.85;;
58123;SDS011;46725;48.068;20.832;2022-12-07T01:10:31;20.27;;;9.25;;
58123;SDS011;46725;48.068;20.832;2022-12-07T01:12:57;20.52;;;8.57;;
58123;SDS011;46725;48.068;20.832;2022-12-07T01:15:24;17.63;;;8.15;;
58123;SDS011;46725;48.068;20.832;2022-12-07T01:17:51;16.25;;;7.95;;
58123;SDS011;46725;48.068;20.832;2022-12-07T01:20:17;13.10;;;7.55;;
58123;SDS011;46725;48.068;20.832;2022-12-07T01:22:43;13.93;;;7.63;;
58123;SDS011;46725;48.068;20.832;2022-12-07T01:25:10;13.63;;;7.55;;
58123;SDS011;46725;48.068;20.832;2022-12-07T01:27:37;19.13;;;8.60;;
58123;SDS011;46725;48.068;20.832;2022-12-07T01:30:04;15.35;;;7.65;;
58123;SDS011;46725;48.068;20.832;2022-12-07T01:32:30;19.55;;;8.68;;
58123;SDS011;46725;48.068;20.832;2022-12-07T01:34:56;16.48;;;7.85;;
58123;SDS011;46725;48.068;20.832;2022-12-07T01:37:22;17.33;;;8.70;;
58123;SDS011;46725;48.068;20.832;2022-12-07T01:39:49;22.50;;;9.98;;
58123;SDS011;46725;48.068;20.832;2022-12-07T01:42:15;19.65;;;10.35;;
58123;SDS011;46725;48.068;20.832;2022-12-07T01:47:26;19.70;;;9.73;;
58123;SDS011;46725;48.068;20.832;2022-12-07T01:49:52;18.25;;;8.60;;
58123;SDS011;46725;48.068;20.832;2022-12-07T01:52:28;19.27;;;8.93;;
58123;SDS011;46725;48.068;20.832;2022-12-07T01:55:00;14.70;;;8.48;;
58123;SDS011;46725;48.068;20.832;2022-12-07T01:57:27;17.30;;;8.02;;
58123;SDS011;46725;48.068;20.832;2022-12-07T01:59:53;23.35;;;9.68;;
58123;SDS011;46725;48.068;20.832;2022-12-07T02:02:23;18.42;;;9.73;;
58123;SDS011;46725;48.068;20.832;2022-12-07T02:04:52;18.23;;;9.45;;
58123;SDS011;46725;48.068;20.832;2022-12-07T02:07:19;13.88;;;8.10;;
58123;SDS011;46725;48.068;20.832;2022-12-07T02:09:46;16.85;;;8.30;;
58123;SDS011;46725;48.068;20.832;2022-12-07T02:12:12;17.98;;;10.05;;
58123;SDS011;46725;48.068;20.832;2022-12-07T02:14:38;18.27;;;9.63;;
58123;SDS011;46725;48.068;20.832;2022-12-07T02:20:54;20.08;;;10.38;;
58123;SDS011;46725;48.068;20.832;2022-12-07T02:27:47;14.93;;;9.48;;
58123;SDS011;46725;48.068;20.832;2022-12-07T02:30:19;16.08;;;9.43;;
58123;SDS011;46725;48.068;20.832;2022-12-07T02:33:10;18.88;;;9.85;;
58123;SDS011;46725;48.068;20.832;2022-12-07T02:38:08;15.60;;;9.02;;
58123;SDS011;46725;48.068;20.832;2022-12-07T02:43:14;17.50;;;9.38;;
58123;SDS011;46725;48.068;20.832;2022-12-07T02:45:41;16.25;;;9.07;;
58123;SDS011;46725;48.068;20.832;2022-12-07T02:48:08;18.45;;;9.20;;
58123;SDS011;46725;48.068;20.832;2022-12-07T02:50:35;18.25;;;9.20;;
58123;SDS011;46725;48.068;20.832;2022-12-07T02:53:01;20.15;;;10.23;;
58123;SDS011;46725;48.068;20.832;2022-12-07T02:55:29;17.77;;;9.70;;
58123;SDS011;46725;48.068;20.832;2022-12-07T03:00:23;17.90;;;9.15;;
58123;SDS011;46725;48.068;20.832;2022-12-07T03:02:57;18.33;;;9.55;;
58123;SDS011;46725;48.068;20.832;2022-12-07T03:08:07;16.92;;;9.60;;
58123;SDS011;46725;48.068;20.832;2022-12-07T03:15:58;17.73;;;10.23;;
58123;SDS011;46725;48.068;20.832;2022-12-07T03:18:25;20.95;;;10.60;;
58123;SDS011;46725;48.068;20.832;2022-12-07T03:20:55;23.30;;;11.77;;
58123;SDS011;46725;48.068;20.832;2022-12-07T03:23:22;20.63;;;10.55;;
58123;SDS011;46725;48.068;20.832;2022-12-07T03:25:50;18.95;;;10.77;;
58123;SDS011;46725;48.068;20.832;2022-12-07T03:28:19;21.27;;;10.95;;
58123;SDS011;46725;48.068;20.832;2022-12-07T03:30:56;24.88;;;12.80;;
58123;SDS011;46725;48.068;20.832;2022-12-07T03:33:31;34.90;;;14.40;;
58123;SDS011;46725;48.068;20.832;2022-12-07T03:36:03;30.30;;;14.25;;
58123;SDS011;46725;48.068;20.832;2022-12-07T03:38:36;24.08;;;11.80;;
58123;SDS011;46725;48.068;20.832;2022-12-07T03:41:05;25.02;;;12.40;;
58123;SDS011;46725;48.068;20.832;2022-12-07T03:43:32;25.20;;;12.50;;
58123;SDS011;46725;48.068;20.832;2022-12-07T03:46:07;23.58;;;11.93;;
58123;SDS011;46725;48.068;20.832;2022-12-07T03:48:36;23.88;;;11.25;;
58123;SDS011;46725;48.068;20.832;2022-12-07T03:53:54;19.45;;;10.90;;
58123;SDS011;46725;48.068;20.832;2022-12-07T03:56:24;17.52;;;9.88;;
58123;SDS011;46725;48.068;20.832;2022-12-07T03:58:51;16.98;;;9.82;;
58123;SDS011;46725;48.068;20.832;2022-12-07T04:01:18;24.15;;;11.07;;
58123;SDS011;46725;48.068;20.832;2022-12-07T04:03:44;18.00;;;10.15;;
58123;SDS011;46725;48.068;20.832;2022-12-07T04:06:10;20.92;;;10.85;;
58123;SDS011;46725;48.068;20.832;2022-12-07T04:08:36;19.08;;;10.13;;
58123;SDS011;46725;48.068;20.832;2022-12-07T04:11:02;20.00;;;10.55;;
58123;SDS011;46725;48.068;20.832;2022-12-07T04:13:28;18.17;;;10.60;;
58123;SDS011;46725;48.068;20.832;2022-12-07T04:15:54;21.95;;;10.32;;
58123;SDS011;46725;48.068;20.832;2022-12-07T04:18:20;17.05;;;9.50;;
58123;SDS011;46725;48.068;20.832;2022-12-07T04:20:46;25.23;;;10.63;;
58123;SDS011;46725;48.068;20.832;2022-12-07T04:23:13;24.38;;;11.50;;
58123;SDS011;46725;48.068;20.832;2022-12-07T04:25:39;26.27;;;12.35;;
58123;SDS011;46725;48.068;20.832;2022-12-07T04:28:06;21.13;;;10.63;;
58123;SDS011;46725;48.068;20.832;2022-12-07T04:30:32;22.25;;;11.27;;
58123;SDS011;46725;48.068;20.832;2022-12-07T04:32:58;20.05;;;9.82;;
58123;SDS011;46725;48.068;20.832;2022-12-07T04:35:24;17.75;;;10.02;;
58123;SDS011;46725;48.068;20.832;2022-12-07T04:37:50;16.83;;;9.43;;
58123;SDS011;46725;48.068;20.832;2022-12-07T04:40:16;14.52;;;8.70;;
58123;SDS011;46725;48.068;20.832;2022-12-07T04:42:42;19.20;;;10.15;;
58123;SDS011;46725;48.068;20.832;2022-12-07T04:45:08;18.45;;;10.15;;
58123;SDS011;46725;48.068;20.832;2022-12-07T04:47:34;17.33;;;9.18;;
58123;SDS011;46725;48.068;20.832;2022-12-07T04:50:01;19.73;;;9.57;;
58123;SDS011;46725;48.068;20.832;2022-12-07T04:52:27;18.15;;;9.05;;
58123;SDS011;46725;48.068;20.832;2022-12-07T04:54:53;18.50;;;9.68;;
58123;SDS011;46725;48.068;20.832;2022-12-07T04:57:19;16.98;;;9.90;;
58123;SDS011;46725;48.068;20.832;2022-12-07T04:59:45;17.52;;;9.30;;
58123;SDS011;46725;48.068;20.832;2022-12-07T05:02:11;18.60;;;10.13;;
58123;SDS011;46725;48.068;20.832;2022-12-07T05:04:37;18.70;;;10.18;;
58123;SDS011;46725;48.068;20.832;2022-12-07T05:07:03;19.98;;;10.77;;
58123;SDS011;46725;48.068;20.832;2022-12-07T05:09:29;17.90;;;9.93;;
58123;SDS011;46725;48.068;20.832;2022-12-07T05:11:55;21.13;;;11.10;;
58123;SDS011;46725;48.068;20.832;2022-12-07T05:14:21;16.80;;;9.98;;
58123;SDS011;46725;48.068;20.832;2022-12-07T05:16:48;32.88;;;18.42;;
58123;SDS011;46725;48.068;20.832;2022-12-07T05:19:15;23.05;;;12.65;;
58123;SDS011;46725;48.068;20.832;2022-12-07T05:21:41;22.67;;;12.18;;
58123;SDS011;46725;48.068;20.832;2022-12-07T05:24:07;25.38;;;14.70;;
58123;SDS011;46725;48.068;20.832;2022-12-07T05:26:35;30.92;;;17.90;;
58123;SDS011;46725;48.068;20.832;2022-12-07T05:29:01;24.77;;;11.50;;
58123;SDS011;46725;48.068;20.832;2022-12-07T05:31:27;24.65;;;14.05;;
58123;SDS011;46725;48.068;20.832;2022-12-07T05:33:53;28.30;;;13.32;;
58123;SDS011;46725;48.068;20.832;2022-12-07T05:36:19;37.80;;;22.48;;
58123;SDS011;46725;48.068;20.832;2022-12-07T05:38:45;37.80;;;20.15;;
58123;SDS011;46725;48.068;20.832;2022-12-07T05:41:15;25.50;;;14.30;;
58123;SDS011;46725;48.068;20.832;2022-12-07T05:44:01;33.55;;;18.45;;
58123;SDS011;46725;48.068;20.832;2022-12-07T05:46:27;44.10;;;23.77;;
58123;SDS011;46725;48.068;20.832;2022-12-07T05:48:53;30.50;;;17.67;;
58123;SDS011;46725;48.068;20.832;2022-12-07T05:51:19;34.15;;;18.20;;
58123;SDS011;46725;48.068;20.832;2022-12-07T05:53:45;31.92;;;16.80;;
58123;SDS011;46725;48.068;20.832;2022-12-07T05:56:11;23.75;;;13.65;;
58123;SDS011;46725;48.068;20.832;2022-12-07T05:58:37;22.88;;;12.88;;
58123;SDS011;46725;48.068;20.832;2022-12-07T06:01:22;21.17;;;11.75;;
58123;SDS011;46725;48.068;20.832;2022-12-07T06:03:48;20.70;;;12.15;;
58123;SDS011;46725;48.068;20.832;2022-12-07T06:06:14;22.42;;;12.70;;
58123;SDS011;46725;48.068;20.832;2022-12-07T06:08:40;21.48;;;12.05;;
58123;SDS011;46725;48.068;20.832;2022-12-07T06:11:06;21.13;;;12.00;;
58123;SDS011;46725;48.068;20.832;2022-12-07T06:13:51;23.40;;;12.07;;
58123;SDS011;46725;48.068;20.832;2022-12-07T06:16:17;20.13;;;11.98;;
58123;SDS011;46725;48.068;20.832;2022-12-07T06:18:43;22.30;;;12.18;;
58123;SDS011;46725;48.068;20.832;2022-12-07T06:21:09;20.88;;;11.95;;
58123;SDS011;46725;48.068;20.832;2022-12-07T06:23:35;21.20;;;12.30;;
58123;SDS011;46725;48.068;20.832;2022-12-07T06:26:01;21.50;;;11.43;;
58123;SDS011;46725;48.068;20.832;2022-12-07T06:28:27;21.98;;;12.02;;
58123;SDS011;46725;48.068;20.832;2022-12-07T06:30:57;20.90;;;11.95;;
58123;SDS011;46725;48.068;20.832;2022-12-07T06:33:24;20.00;;;11.05;;
58123;SDS011;46725;48.068;20.832;2022-12-07T06:35:50;26.95;;;15.40;;
58123;SDS011;46725;48.068;20.832;2022-12-07T06:38:16;22.27;;;12.77;;
58123;SDS011;46725;48.068;20.832;2022-12-07T06:40:42;24.83;;;13.07;;
58123;SDS011;46725;48.068;20.832;2022-12-07T06:43:08;23.23;;;12.80;;
58123;SDS011;46725;48.068;20.832;2022-12-07T06:45:34;24.27;;;13.40;;
58123;SDS011;46725;48.068;20.832;2022-12-07T06:48:00;26.60;;;15.00;;
58123;SDS011;46725;48.068;20.832;2022-12-07T06:50:26;25.50;;;14.85;;
58123;SDS011;46725;48.068;20.832;2022-12-07T06:52:53;28.63;;;15.63;;
58123;SDS011;46725;48.068;20.832;2022-12-07T06:55:19;26.88;;;14.18;;
58123;SDS011;46725;48.068;20.832;2022-12-07T06:57:45;32.38;;;15.90;;
58123;SDS011;46725;48.068;20.832;2022-12-07T07:00:11;24.00;;;14.20;;
58123;SDS011;46725;48.068;20.832;2022-12-07T07:02:37;24.88;;;14.25;;
58123;SDS011;46725;48.068;20.832;2022-12-07T07:05:03;27.42;;;14.95;;
58123;SDS011;46725;48.068;20.832;2022-12-07T07:07:29;26.27;;;15.20;;
58123;SDS011;46725;48.068;20.832;2022-12-07T07:09:56;27.20;;;15.48;;
58123;SDS011;46725;48.068;20.832;2022-12-07T07:12:22;23.25;;;14.07;;
58123;SDS011;46725;48.068;20.832;2022-12-07T07:14:48;29.50;;;15.85;;
58123;SDS011;46725;48.068;20.832;2022-12-07T07:17:14;29.08;;;15.25;;
58123;SDS011;46725;48.068;20.832;2022-12-07T07:19:40;31.10;;;16.58;;
58123;SDS011;46725;48.068;20.832;2022-12-07T07:22:06;30.10;;;15.30;;
58123;SDS011;46725;48.068;20.832;2022-12-07T07:24:32;26.85;;;13.60;;
58123;SDS011;46725;48.068;20.832;2022-12-07T07:26:58;20.65;;;12.57;;
58123;SDS011;46725;48.068;20.832;2022-12-07T07:29:24;23.95;;;13.95;;
58123;SDS011;46725;48.068;20.832;2022-12-07T07:31:50;23.75;;;13.23;;
58123;SDS011;46725;48.068;20.832;2022-12-07T07:34:16;22.50;;;12.93;;
58123;SDS011;46725;48.068;20.832;2022-12-07T07:36:42;22.20;;;12.50;;
58123;SDS011;46725;48.068;20.832;2022-12-07T07:39:09;23.27;;;12.85;;
58123;SDS011;46725;48.068;20.832;2022-12-07T07:41:37;21.10;;;11.57;;
58123;SDS011;46725;48.068;20.832;2022-12-07T07:44:03;21.75;;;12.20;;
58123;SDS011;46725;48.068;20.832;2022-12-07T07:46:29;20.48;;;10.77;;
58123;SDS011;46725;48.068;20.832;2022-12-07T07:48:56;15.70;;;9.80;;
58123;SDS011;46725;48.068;20.832;2022-12-07T07:51:22;15.27;;;9.43;;
58123;SDS011;46725;48.068;20.832;2022-12-07T07:53:48;18.00;;;10.57;;
58123;SDS011;46725;48.068;20.832;2022-12-07T07:56:14;17.48;;;10.27;;
58123;SDS011;46725;48.068;20.832;2022-12-07T07:58:40;17.77;;;10.52;;
58123;SDS011;46725;48.068;20.832;2022-12-07T08:01:06;18.90;;;10.50;;
58123;SDS011;46725;48.068;20.832;2022-12-07T08:03:32;16.27;;;9.77;;
58123;SDS011;46725;48.068;20.832;2022-12-07T08:05:58;17.38;;;9.77;;
58123;SDS011;46725;48.068;20.832;2022-12-07T08:08:24;20.02;;;8.93;;
58123;SDS011;46725;48.068;20.832;2022-12-07T08:10:50;17.45;;;10.00;;
58123;SDS011;46725;48.068;20.832;2022-12-07T08:13:17;14.82;;;9.23;;
58123;SDS011;46725;48.068;20.832;2022-12-07T08:15:44;17.67;;;10.00;;
58123;SDS011;46725;48.068;20.832;2022-12-07T08:18:10;18.42;;;11.70;;
58123;SDS011;46725;48.068;20.832;2022-12-07T08:20:37;46.17;;;32.55;;
58123;SDS011;46725;48.068;20.832;2022-12-07T08:23:03;19.65;;;13.77;;
58123;SDS011;46725;48.068;20.832;2022-12-07T08:25:30;18.02;;;10.32;;
58123;SDS011;46725;48.068;20.832;2022-12-07T08:27:57;19.23;;;11.60;;
58123;SDS011;46725;48.068;20.832;2022-12-07T08:30:23;16.45;;;11.57;;
58123;SDS011;46725;48.068;20.832;2022-12-07T08:32:49;19.77;;;12.93;;
58123;SDS011;46725;48.068;20.832;2022-12-07T08:35:15;18.88;;;11.00;;
58123;SDS011;46725;48.068;20.832;2022-12-07T08:37:41;43.03;;;19.58;;
58123;SDS011;46725;48.068;20.832;2022-12-07T08:40:08;35.38;;;15.32;;
58123;SDS011;46725;48.068;20.832;2022-12-07T08:42:34;23.27;;;13.40;;
58123;SDS011;46725;48.068;20.832;2022-12-07T08:45:09;22.33;;;16.55;;
58123;SDS011;46725;48.068;20.832;2022-12-07T08:47:36;19.00;;;11.18;;
58123;SDS011;46725;48.068;20.832;2022-12-07T08:50:03;18.27;;;11.88;;
58123;SDS011;46725;48.068;20.832;2022-12-07T08:52:30;17.80;;;10.85;;
58123;SDS011;46725;48.068;20.832;2022-12-07T08:54:56;16.50;;;10.52;;
58123;SDS011;46725;48.068;20.832;2022-12-07T08:57:22;16.70;;;9.80;;
58123;SDS011;46725;48.068;20.832;2022-12-07T08:59:48;16.30;;;9.57;;
58123;SDS011;46725;48.068;20.832;2022-12-07T09:02:14;19.25;;;12.25;;
58123;SDS011;46725;48.068;20.832;2022-12-07T09:04:40;21.45;;;12.60;;
58123;SDS011;46725;48.068;20.832;2022-12-07T09:07:06;21.75;;;13.32;;
58123;SDS011;46725;48.068;20.832;2022-12-07T09:09:32;21.92;;;13.27;;
58123;SDS011;46725;48.068;20.832;2022-12-07T09:11:58;35.58;;;23.23;;
58123;SDS011;46725;48.068;20.832;2022-12-07T09:14:24;20.77;;;13.45;;
58123;SDS011;46725;48.068;20.832;2022-12-07T09:16:50;20.50;;;12.27;;
58123;SDS011;46725;48.068;20.832;2022-12-07T09:19:16;23.13;;;13.30;;
58123;SDS011;46725;48.068;20.832;2022-12-07T09:21:43;40.97;;;23.80;;
58123;SDS011;46725;48.068;20.832;2022-12-07T09:24:09;20.95;;;11.98;;
58123;SDS011;46725;48.068;20.832;2022-12-07T09:26:35;24.65;;;13.32;;
58123;SDS011;46725;48.068;20.832;2022-12-07T09:29:04;19.77;;;11.38;;
58123;SDS011;46725;48.068;20.832;2022-12-07T09:31:30;19.35;;;11.95;;
58123;SDS011;46725;48.068;20.832;2022-12-07T09:33:59;17.65;;;10.48;;
58123;SDS011;46725;48.068;20.832;2022-12-07T09:36:26;82.40;;;39.35;;
58123;SDS011;46725;48.068;20.832;2022-12-07T09:38:52;92.60;;;44.92;;
58123;SDS011;46725;48.068;20.832;2022-12-07T09:41:18;32.50;;;17.10;;
58123;SDS011;46725;48.068;20.832;2022-12-07T09:43:45;31.27;;;16.13;;
58123;SDS011;46725;48.068;20.832;2022-12-07T09:46:13;23.77;;;13.73;;
58123;SDS011;46725;48.068;20.832;2022-12-07T09:48:40;15.95;;;9.50;;
58123;SDS011;46725;48.068;20.832;2022-12-07T09:51:23;11.73;;;7.55;;
58123;SDS011;46725;48.068;20.832;2022-12-07T09:53:50;14.20;;;9.82;;
58123;SDS011;46725;48.068;20.832;2022-12-07T09:56:17;16.73;;;9.57;;
58123;SDS011;46725;48.068;20.832;2022-12-07T09:58:43;14.07;;;7.05;;
58123;SDS011;46725;48.068;20.832;2022-12-07T10:03:40;12.52;;;7.97;;
58123;SDS011;46725;48.068;20.832;2022-12-07T10:06:06;12.15;;;6.25;;
58123;SDS011;46725;48.068;20.832;2022-12-07T10:08:32;25.70;;;17.63;;
58123;SDS011;46725;48.068;20.832;2022-12-07T10:11:02;9.20;;;5.63;;
58123;SDS011;46725;48.068;20.832;2022-12-07T10:16:00;9.15;;;4.25;;
58123;SDS011;46725;48.068;20.832;2022-12-07T10:23:32;7.45;;;4.07;;
58123;SDS011;46725;48.068;20.832;2022-12-07T10:25:58;8.68;;;4.30;;
58123;SDS011;46725;48.068;20.832;2022-12-07T10:28:27;8.57;;;4.85;;
58123;SDS011;46725;48.068;20.832;2022-12-07T10:31:00;11.00;;;5.97;;
58123;SDS011;46725;48.068;20.832;2022-12-07T10:33:29;9.75;;;5.22;;
58123;SDS011;46725;48.068;20.832;2022-12-07T10:35:55;10.60;;;5.75;;
58123;SDS011;46725;48.068;20.832;2022-12-07T10:38:22;10.85;;;5.95;;
58123;SDS011;46725;48.068;20.832;2022-12-07T10:40:49;8.30;;;4.97;;
58123;SDS011;46725;48.068;20.832;2022-12-07T10:43:28;9.32;;;5.43;;
58123;SDS011;46725;48.068;20.832;2022-12-07T10:48:29;7.55;;;4.93;;
58123;SDS011;46725;48.068;20.832;2022-12-07T10:56:08;10.20;;;4.95;;
58123;SDS011;46725;48.068;20.832;2022-12-07T11:11:53;9.70;;;4.38;;
58123;SDS011;46725;48.068;20.832;2022-12-07T11:19:52;8.02;;;3.58;;
58123;SDS011;46725;48.068;20.832;2022-12-07T11:24:52;6.35;;;3.10;;
58123;SDS011;46725;48.068;20.832;2022-12-07T11:30:03;5.65;;;2.92;;
58123;SDS011;46725;48.068;20.832;2022-12-07T11:37:58;5.55;;;3.22;;
58123;SDS011;46725;48.068;20.832;2022-12-07T11:40:30;5.47;;;2.97;;
58123;SDS011;46725;48.068;20.832;2022-12-07T11:43:05;5.47;;;2.70;;
58123;SDS011;46725;48.068;20.832;2022-12-07T11:45:33;6.80;;;2.92;;
58123;SDS011;46725;48.068;20.832;2022-12-07T11:55:41;10.07;;;3.08;;
58123;SDS011;46725;48.068;20.832;2022-12-07T12:00:54;4.53;;;2.22;;
58123;SDS011;46725;48.068;20.832;2022-12-07T12:03:25;4.00;;;1.90;;
58123;SDS011;46725;48.068;20.832;2022-12-07T12:05:55;6.22;;;2.42;;
58123;SDS011;46725;48.068;20.832;2022-12-07T12:08:24;4.28;;;1.95;;
58123;SDS011;46725;48.068;20.832;2022-12-07T12:21:53;10.35;;;4.35;;
58123;SDS011;46725;48.068;20.832;2022-12-07T12:24:25;8.38;;;3.60;;
58123;SDS011;46725;48.068;20.832;2022-12-07T12:26:58;12.18;;;5.25;;
58123;SDS011;46725;48.068;20.832;2022-12-07T12:29:36;4.45;;;2.45;;
58123;SDS011;46725;48.068;20.832;2022-12-07T12:34:33;15.23;;;6.43;;
58123;SDS011;46725;48.068;20.832;2022-12-07T12:36:59;10.35;;;4.25;;
58123;SDS011;46725;48.068;20.832;2022-12-07T12:39:25;6.18;;;2.33;;
58123;SDS011;46725;48.068;20.832;2022-12-07T12:41:52;7.07;;;3.08;;
58123;SDS011;46725;48.068;20.832;2022-12-07T12:46:49;6.22;;;3.13;;
58123;SDS011;46725;48.068;20.832;2022-12-07T12:51:42;6.63;;;2.88;;
58123;SDS011;46725;48.068;20.832;2022-12-07T12:54:14;6.97;;;2.30;;
58123;SDS011;46725;48.068;20.832;2022-12-07T12:59:26;6.50;;;2.88;;
58123;SDS011;46725;48.068;20.832;2022-12-07T13:06:55;5.13;;;1.85;;
58123;SDS011;46725;48.068;20.832;2022-12-07T13:09:25;5.55;;;2.40;;
58123;SDS011;46725;48.068;20.832;2022-12-07T13:11:56;4.22;;;1.85;;
58123;SDS011;46725;48.068;20.832;2022-12-07T13:17:09;4.15;;;1.98;;
58123;SDS011;46725;48.068;20.832;2022-12-07T13:24:56;5.72;;;2.35;;
58123;SDS011;46725;48.068;20.832;2022-12-07T13:27:22;5.15;;;2.55;;
58123;SDS011;46725;48.068;20.832;2022-12-07T13:29:48;8.00;;;3.50;;
58123;SDS011;46725;48.068;20.832;2022-12-07T13:32:22;7.38;;;3.67;;
58123;SDS011;46725;48.068;20.832;2022-12-07T13:34:49;9.18;;;4.38;;
58123;SDS011;46725;48.068;20.832;2022-12-07T13:39:49;12.77;;;4.95;;
58123;SDS011;46725;48.068;20.832;2022-12-07T13:42:26;34.15;;;18.65;;
58123;SDS011;46725;48.068;20.832;2022-12-07T13:44:52;8.27;;;4.43;;
58123;SDS011;46725;48.068;20.832;2022-12-07T13:47:21;10.25;;;4.30;;
58123;SDS011;46725;48.068;20.832;2022-12-07T13:49:51;8.50;;;4.53;;
58123;SDS011;46725;48.068;20.832;2022-12-07T13:52:18;13.23;;;5.75;;
58123;SDS011;46725;48.068;20.832;2022-12-07T13:54:45;17.52;;;8.07;;
58123;SDS011;46725;48.068;20.832;2022-12-07T13:57:12;14.13;;;5.80;;
58123;SDS011;46725;48.068;20.832;2022-12-07T13:59:38;19.33;;;7.25;;
58123;SDS011;46725;48.068;20.832;2022-12-07T14:02:17;11.07;;;3.70;;
58123;SDS011;46725;48.068;20.832;2022-12-07T14:04:45;7.55;;;3.60;;
58123;SDS011;46725;48.068;20.832;2022-12-07T14:07:22;8.52;;;4.03;;
58123;SDS011;46725;48.068;20.832;2022-12-07T14:10:02;6.60;;;3.22;;
58123;SDS011;46725;48.068;20.832;2022-12-07T14:12:29;8.98;;;3.58;;
58123;SDS011;46725;48.068;20.832;2022-12-07T14:14:56;14.75;;;6.25;;
58123;SDS011;46725;48.068;20.832;2022-12-07T14:17:23;10.40;;;5.97;;
58123;SDS011;46725;48.068;20.832;2022-12-07T14:24:46;16.95;;;9.90;;
58123;SDS011;46725;48.068;20.832;2022-12-07T14:27:22;17.90;;;8.43;;
58123;SDS011;46725;48.068;20.832;2022-12-07T14:29:50;28.73;;;15.63;;
58123;SDS011;46725;48.068;20.832;2022-12-07T14:32:21;21.17;;;13.05;;
58123;SDS011;46725;48.068;20.832;2022-12-07T14:34:56;13.70;;;7.15;;
58123;SDS011;46725;48.068;20.832;2022-12-07T14:37:23;12.35;;;8.05;;
58123;SDS011;46725;48.068;20.832;2022-12-07T14:39:49;13.90;;;8.50;;
58123;SDS011;46725;48.068;20.832;2022-12-07T14:42:15;11.70;;;6.90;;
58123;SDS011;46725;48.068;20.832;2022-12-07T14:44:41;28.83;;;17.52;;
58123;SDS011;46725;48.068;20.832;2022-12-07T14:47:09;17.48;;;10.45;;
58123;SDS011;46725;48.068;20.832;2022-12-07T14:49:35;24.23;;;12.43;;
58123;SDS011;46725;48.068;20.832;2022-12-07T14:52:01;49.55;;;26.17;;
58123;SDS011;46725;48.068;20.832;2022-12-07T14:54:29;28.25;;;15.50;;
58123;SDS011;46725;48.068;20.832;2022-12-07T14:56:56;35.97;;;17.33;;
58123;SDS011;46725;48.068;20.832;2022-12-07T14:59:22;112.97;;;44.03;;
58123;SDS011;46725;48.068;20.832;2022-12-07T15:01:48;53.08;;;25.48;;
58123;SDS011;46725;48.068;20.832;2022-12-07T15:04:14;55.63;;;23.95;;
58123;SDS011;46725;48.068;20.832;2022-12-07T15:06:40;53.22;;;26.05;;
58123;SDS011;46725;48.068;20.832;2022-12-07T15:09:11;97.22;;;48.10;;
58123;SDS011;46725;48.068;20.832;2022-12-07T15:11:37;49.95;;;25.77;;
58123;SDS011;46725;48.068;20.832;2022-12-07T15:14:03;53.95;;;26.90;;
58123;SDS011;46725;48.068;20.832;2022-12-07T15:16:40;54.58;;;28.95;;
58123;SDS011;46725;48.068;20.832;2022-12-07T15:19:10;32.88;;;18.23;;
58123;SDS011;46725;48.068;20.832;2022-12-07T15:21:37;27.13;;;16.60;;
58123;SDS011;46725;48.068;20.832;2022-12-07T15:24:03;29.02;;;17.45;;
58123;SDS011;46725;48.068;20.832;2022-12-07T15:26:29;11.85;;;6.95;;
58123;SDS011;46725;48.068;20.832;2022-12-07T15:28:55;40.17;;;18.08;;
58123;SDS011;46725;48.068;20.832;2022-12-07T15:31:21;55.90;;;31.70;;
58123;SDS011;46725;48.068;20.832;2022-12-07T15:33:47;33.45;;;20.42;;
58123;SDS011;46725;48.068;20.832;2022-12-07T15:36:20;30.58;;;17.38;;
58123;SDS011;46725;48.068;20.832;2022-12-07T15:38:47;37.90;;;22.38;;
58123;SDS011;46725;48.068;20.832;2022-12-07T15:41:13;41.53;;;21.00;;
58123;SDS011;46725;48.068;20.832;2022-12-07T15:43:39;34.08;;;21.02;;
58123;SDS011;46725;48.068;20.832;2022-12-07T15:46:29;23.55;;;12.65;;
58123;SDS011;46725;48.068;20.832;2022-12-07T15:48:55;17.52;;;10.27;;
58123;SDS011;46725;48.068;20.832;2022-12-07T15:51:21;16.58;;;10.50;;
58123;SDS011;46725;48.068;20.832;2022-12-07T15:53:47;33.28;;;15.60;;
58123;SDS011;46725;48.068;20.832;2022-12-07T15:56:13;20.63;;;10.65;;
58123;SDS011;46725;48.068;20.832;2022-12-07T15:58:39;30.20;;;14.85;;
58123;SDS011;46725;48.068;20.832;2022-12-07T16:01:12;24.60;;;14.13;;
58123;SDS011;46725;48.068;20.832;2022-12-07T16:03:39;12.35;;;7.78;;
58123;SDS011;46725;48.068;20.832;2022-12-07T16:06:05;12.20;;;6.00;;
58123;SDS011;46725;48.068;20.832;2022-12-07T16:08:31;16.55;;;8.52;;
58123;SDS011;46725;48.068;20.832;2022-12-07T16:10:57;17.00;;;8.98;;
58123;SDS011;46725;48.068;20.832;2022-12-07T16:13:24;16.45;;;10.05;;
58123;SDS011;46725;48.068;20.832;2022-12-07T16:15:50;20.33;;;9.65;;
58123;SDS011;46725;48.068;20.832;2022-12-07T16:18:16;36.22;;;19.75;;
58123;SDS011;46725;48.068;20.832;2022-12-07T16:20:42;30.67;;;14.30;;
58123;SDS011;46725;48.068;20.832;2022-12-07T16:23:08;19.73;;;9.80;;
58123;SDS011;46725;48.068;20.832;2022-12-07T16:25:34;22.30;;;11.68;;
58123;SDS011;46725;48.068;20.832;2022-12-07T16:28:01;30.80;;;17.20;;